createdAt,value
2017-07-10T00:00:06.225Z,19.82
2017-07-10T00:01:06.815Z,19.9
2017-07-10T00:02:07.098Z,19.89
2017-07-10T00:03:06.257Z,19.89
2017-07-10T00:04:06.251Z,19.86
2017-07-10T00:05:06.197Z,19.87
2017-07-10T00:06:06.865Z,19.86
2017-07-10T00:07:07.152Z,19.85
2017-07-10T00:08:06.625Z,19.89
2017-07-10T00:09:06.564Z,19.87
2017-07-10T00:10:06.505Z,19.87
2017-07-10T00:11:06.726Z,19.82
2017-07-10T00:12:06.557Z,19.87
2017-07-10T00:13:06.587Z,19.85
2017-07-10T00:14:06.200Z,19.87
2017-07-10T00:15:06.968Z,19.9
2017-07-10T00:16:06.436Z,19.86
2017-07-10T00:17:07.033Z,19.8
2017-07-10T00:18:06.403Z,19.75
2017-07-10T00:19:06.421Z,19.8
2017-07-10T00:20:06.548Z,19.79
2017-07-10T00:21:06.527Z,19.75
2017-07-10T00:22:07.026Z,19.72
2017-07-10T00:23:06.868Z,19.71
2017-07-10T00:24:06.148Z,19.67
2017-07-10T00:25:06.221Z,19.52
2017-07-10T00:26:06.813Z,19.61
2017-07-10T00:27:06.704Z,19.57
2017-07-10T00:28:06.220Z,19.56
2017-07-10T00:29:06.587Z,19.53
2017-07-10T00:30:06.484Z,19.61
2017-07-10T00:31:06.498Z,19.57
2017-07-10T00:32:07.142Z,19.52
2017-07-10T00:33:06.837Z,19.49
2017-07-10T00:34:06.453Z,19.49
2017-07-10T00:35:06.515Z,19.5
2017-07-10T00:36:07.096Z,19.5
2017-07-10T00:37:06.334Z,19.5
2017-07-10T00:38:06.593Z,19.47
2017-07-10T00:39:06.141Z,19.52
2017-07-10T00:40:06.189Z,19.5
2017-07-10T00:41:06.583Z,19.42
2017-07-10T00:42:06.517Z,19.37
2017-07-10T00:43:07.036Z,19.37
2017-07-10T00:44:06.640Z,19.32
2017-07-10T00:45:06.543Z,19.32
2017-07-10T00:46:06.149Z,19.31
2017-07-10T00:47:06.169Z,19.28
2017-07-10T00:48:06.288Z,19.28
2017-07-10T00:49:06.695Z,19.19
2017-07-10T00:50:06.783Z,19.24
2017-07-10T00:51:06.584Z,19.16
2017-07-10T00:52:06.137Z,19.16
2017-07-10T00:53:06.166Z,19.17
2017-07-10T00:54:06.212Z,19.1
2017-07-10T00:55:06.457Z,19.19
2017-07-10T00:56:06.448Z,19.07
2017-07-10T00:57:07.556Z,19.05
2017-07-10T00:58:06.663Z,19.07
2017-07-10T00:59:06.519Z,19.09
2017-07-10T01:00:06.645Z,19.05
2017-07-10T01:01:06.182Z,19.1
2017-07-10T01:02:06.824Z,19.1
2017-07-10T01:03:06.496Z,19.1
2017-07-10T01:04:06.146Z,19
2017-07-10T01:05:06.149Z,19.07
2017-07-10T01:06:06.144Z,19.09
2017-07-10T01:07:06.793Z,19.09
2017-07-10T01:08:06.111Z,19.13
2017-07-10T01:09:06.145Z,19.09
2017-07-10T01:10:06.179Z,19.13
2017-07-10T01:11:06.832Z,19.02
2017-07-10T01:12:06.806Z,19.06
2017-07-10T01:13:06.130Z,19.07
2017-07-10T01:14:07.310Z,19.06
2017-07-10T01:15:07.127Z,19.07
2017-07-10T01:16:06.462Z,19.06
2017-07-10T01:17:06.427Z,19.16
2017-07-10T01:18:06.549Z,19.13
2017-07-10T01:19:06.113Z,19.07
2017-07-10T01:20:06.835Z,19.17
2017-07-10T01:21:06.587Z,19.2
2017-07-10T01:22:06.190Z,19.12
2017-07-10T01:23:06.497Z,19.2
2017-07-10T01:24:06.966Z,19.24
2017-07-10T01:25:07.022Z,19.27
2017-07-10T01:26:06.123Z,19.31
2017-07-10T01:27:06.155Z,19.38
2017-07-10T01:28:06.194Z,19.31
2017-07-10T01:29:06.155Z,19.38
2017-07-10T01:30:06.749Z,19.32
2017-07-10T01:31:06.062Z,19.35
2017-07-10T01:32:06.617Z,19.38
2017-07-10T01:33:06.637Z,19.47
2017-07-10T01:34:07.549Z,19.5
2017-07-10T01:35:06.070Z,19.52
2017-07-10T01:36:06.131Z,19.55
2017-07-10T01:37:06.397Z,19.52
2017-07-10T01:38:06.895Z,19.47
2017-07-10T01:39:06.482Z,19.53
2017-07-10T01:40:06.802Z,19.47
2017-07-10T01:41:06.500Z,19.57
2017-07-10T01:42:06.252Z,19.49
2017-07-10T01:43:06.429Z,19.47
2017-07-10T01:44:06.522Z,19.47
2017-07-10T01:45:06.846Z,19.47
2017-07-10T01:46:07.146Z,19.55
2017-07-10T01:47:06.407Z,19.46
2017-07-10T01:48:06.439Z,19.47
2017-07-10T01:49:06.117Z,19.46
2017-07-10T01:50:06.088Z,19.55
2017-07-10T01:51:07.117Z,19.53
2017-07-10T01:52:06.467Z,19.53
2017-07-10T01:53:06.141Z,19.53
2017-07-10T01:54:06.774Z,19.55
2017-07-10T01:55:06.511Z,19.5
2017-07-10T01:56:06.514Z,19.53
2017-07-10T01:57:06.123Z,19.46
2017-07-10T01:58:06.811Z,19.52
2017-07-10T01:59:06.166Z,19.5
2017-07-10T02:00:07.236Z,19.55
2017-07-10T02:01:06.101Z,19.47
2017-07-10T02:02:06.113Z,19.47
2017-07-10T02:03:06.119Z,19.45
2017-07-10T02:04:06.193Z,19.45
2017-07-10T02:05:06.842Z,19.4
2017-07-10T02:06:06.582Z,19.5
2017-07-10T02:07:06.416Z,19.38
2017-07-10T02:08:06.815Z,19.37
2017-07-10T02:09:06.144Z,19.35
2017-07-10T02:10:06.669Z,19.42
2017-07-10T02:11:06.514Z,19.52
2017-07-10T02:12:06.162Z,19.4
2017-07-10T02:13:06.122Z,19.46
2017-07-10T02:14:06.614Z,19.35
2017-07-10T02:15:06.085Z,19.45
2017-07-10T02:16:06.495Z,19.43
2017-07-10T02:17:06.089Z,19.42
2017-07-10T02:18:06.118Z,19.43
2017-07-10T02:19:06.878Z,19.5
2017-07-10T02:20:06.470Z,19.46
2017-07-10T02:21:06.421Z,19.49
2017-07-10T02:22:06.535Z,19.38
2017-07-10T02:23:06.462Z,19.46
2017-07-10T02:24:07.049Z,19.53
2017-07-10T02:25:06.668Z,19.5
2017-07-10T02:26:06.075Z,19.46
2017-07-10T02:27:06.066Z,19.45
2017-07-10T02:28:06.482Z,19.52
2017-07-10T02:29:06.101Z,19.4
2017-07-10T02:30:06.599Z,19.49
2017-07-10T02:31:06.417Z,19.47
2017-07-10T02:32:06.445Z,19.47
2017-07-10T02:33:06.025Z,19.49
2017-07-10T02:34:06.682Z,19.43
2017-07-10T02:35:06.381Z,19.46
2017-07-10T02:36:06.082Z,19.43
2017-07-10T02:37:06.110Z,19.52
2017-07-10T02:38:06.392Z,19.5
2017-07-10T02:39:06.090Z,19.46
2017-07-10T02:40:06.440Z,19.5
2017-07-10T02:41:06.353Z,19.53
2017-07-10T02:42:06.100Z,19.5
2017-07-10T02:43:06.418Z,19.52
2017-07-10T02:44:06.153Z,19.56
2017-07-10T02:45:06.424Z,19.56
2017-07-10T02:46:06.325Z,19.49
2017-07-10T02:47:06.417Z,19.6
2017-07-10T02:48:06.050Z,19.57
2017-07-10T02:49:06.043Z,19.47
2017-07-10T02:50:06.090Z,19.53
2017-07-10T02:51:06.392Z,19.5
2017-07-10T02:52:06.722Z,19.49
2017-07-10T02:53:06.452Z,19.52
2017-07-10T02:54:06.016Z,19.57
2017-07-10T02:55:06.364Z,19.55
2017-07-10T02:56:06.269Z,19.61
2017-07-10T02:57:06.344Z,19.55
2017-07-10T02:58:06.019Z,19.52
2017-07-10T02:59:06.043Z,19.52
2017-07-10T03:00:06.364Z,19.57
2017-07-10T03:01:06.381Z,19.57
2017-07-10T03:02:06.045Z,19.5
2017-07-10T03:03:06.016Z,19.53
2017-07-10T03:04:06.017Z,19.52
2017-07-10T03:05:06.018Z,19.57
2017-07-10T03:06:06.018Z,19.46
2017-07-10T03:07:06.061Z,19.47
2017-07-10T03:08:06.333Z,19.49
2017-07-10T03:09:06.717Z,19.49
2017-07-10T03:10:06.537Z,19.5
2017-07-10T03:11:06.788Z,19.45
2017-07-10T03:12:06.343Z,19.53
2017-07-10T03:13:06.339Z,19.55
2017-07-10T03:14:06.026Z,19.5
2017-07-10T03:15:06.345Z,19.53
2017-07-10T03:16:06.319Z,19.5
2017-07-10T03:17:06.321Z,19.49
2017-07-10T03:18:06.749Z,19.55
2017-07-10T03:19:06.011Z,19.49
2017-07-10T03:20:06.015Z,19.49
2017-07-10T03:21:06.447Z,19.5
2017-07-10T03:22:06.357Z,19.49
2017-07-10T03:23:06.045Z,19.52
2017-07-10T03:24:06.004Z,19.52
2017-07-10T03:25:06.669Z,19.46
2017-07-10T03:26:06.670Z,19.47
2017-07-10T03:27:06.328Z,19.5
2017-07-10T03:28:06.101Z,19.49
2017-07-10T03:29:06.034Z,19.49
2017-07-10T03:30:05.993Z,19.46
2017-07-10T03:31:06.031Z,19.56
2017-07-10T03:32:06.016Z,19.45
2017-07-10T03:33:06.687Z,19.49
2017-07-10T03:34:06.012Z,19.55
2017-07-10T03:35:06.022Z,19.52
2017-07-10T03:36:05.977Z,19.53
2017-07-10T03:37:06.358Z,19.46
2017-07-10T03:38:06.293Z,19.49
2017-07-10T03:39:05.947Z,19.46
2017-07-10T03:40:05.960Z,19.46
2017-07-10T03:41:06.441Z,19.46
2017-07-10T03:42:05.964Z,19.5
2017-07-10T03:43:06.371Z,19.37
2017-07-10T03:44:06.668Z,19.4
2017-07-10T03:45:06.404Z,19.45
2017-07-10T03:46:06.329Z,19.38
2017-07-10T03:47:06.327Z,19.46
2017-07-10T03:48:06.304Z,19.47
2017-07-10T03:49:05.991Z,19.47
2017-07-10T03:50:06.344Z,19.45
2017-07-10T03:51:06.014Z,19.47
2017-07-10T03:52:06.343Z,19.46
2017-07-10T03:53:06.322Z,19.47
2017-07-10T03:54:05.958Z,19.5
2017-07-10T03:55:06.296Z,19.53
2017-07-10T03:56:06.051Z,19.6
2017-07-10T03:57:06.316Z,19.49
2017-07-10T03:58:06.315Z,19.47
2017-07-10T03:59:06.003Z,19.52
2017-07-10T04:00:06.647Z,19.49
2017-07-10T04:01:06.012Z,19.5
2017-07-10T04:02:06.313Z,19.5
2017-07-10T04:03:06.349Z,19.57
2017-07-10T04:04:05.974Z,19.46
2017-07-10T04:05:05.930Z,19.49
2017-07-10T04:06:06.062Z,19.56
2017-07-10T04:07:06.340Z,19.52
2017-07-10T04:08:05.943Z,19.56
2017-07-10T04:09:06.300Z,19.61
2017-07-10T04:10:06.611Z,19.49
2017-07-10T04:11:06.321Z,19.56
2017-07-10T04:12:06.624Z,19.57
2017-07-10T04:13:06.631Z,19.6
2017-07-10T04:14:06.237Z,19.56
2017-07-10T04:15:05.958Z,19.61
2017-07-10T04:16:06.416Z,19.57
2017-07-10T04:17:06.395Z,19.63
2017-07-10T04:18:06.326Z,19.56
2017-07-10T04:19:06.268Z,19.68
2017-07-10T04:20:06.327Z,19.56
2017-07-10T04:21:06.660Z,19.56
2017-07-10T04:22:05.963Z,19.64
2017-07-10T04:23:06.042Z,19.67
2017-07-10T04:24:06.020Z,19.55
2017-07-10T04:25:05.968Z,19.6
2017-07-10T04:26:06.321Z,19.64
2017-07-10T04:27:05.952Z,19.64
2017-07-10T04:28:05.956Z,19.56
2017-07-10T04:29:06.315Z,19.6
2017-07-10T04:30:05.944Z,19.64
2017-07-10T04:31:06.043Z,19.57
2017-07-10T04:32:05.892Z,19.57
2017-07-10T04:33:05.924Z,19.57
2017-07-10T04:34:06.276Z,19.67
2017-07-10T04:35:06.557Z,19.55
2017-07-10T04:36:06.225Z,19.47
2017-07-10T04:37:06.268Z,19.63
2017-07-10T04:38:06.597Z,19.65
2017-07-10T04:39:06.275Z,19.7
2017-07-10T04:40:06.248Z,19.64
2017-07-10T04:41:05.922Z,19.72
2017-07-10T04:42:06.325Z,19.74
2017-07-10T04:43:06.231Z,19.83
2017-07-10T04:44:05.911Z,19.89
2017-07-10T04:45:05.975Z,19.89
2017-07-10T04:46:05.969Z,19.87
2017-07-10T04:47:06.650Z,19.89
2017-07-10T04:48:06.273Z,19.8
2017-07-10T04:49:06.233Z,19.92
2017-07-10T04:50:06.636Z,19.9
2017-07-10T04:51:06.371Z,19.87
2017-07-10T04:52:06.302Z,19.8
2017-07-10T04:53:05.964Z,19.95
2017-07-10T04:54:06.559Z,19.87
2017-07-10T04:55:06.584Z,19.78
2017-07-10T04:56:06.293Z,19.83
2017-07-10T04:57:05.943Z,19.87
2017-07-10T04:58:06.604Z,19.82
2017-07-10T04:59:05.902Z,19.85
2017-07-10T05:00:05.945Z,19.8
2017-07-10T05:01:06.248Z,19.8
2017-07-10T05:02:06.213Z,19.83
2017-07-10T05:03:06.300Z,19.72
2017-07-10T05:04:05.923Z,19.67
2017-07-10T05:05:06.056Z,19.8
2017-07-10T05:06:06.219Z,19.75
2017-07-10T05:07:06.249Z,19.74
2017-07-10T05:08:06.223Z,19.82
2017-07-10T05:09:05.925Z,19.86
2017-07-10T05:10:05.870Z,19.89
2017-07-10T05:11:06.279Z,19.89
2017-07-10T05:12:05.877Z,19.97
2017-07-10T05:13:05.880Z,20.01
2017-07-10T05:14:06.254Z,20.05
2017-07-10T05:15:05.906Z,19.93
2017-07-10T05:16:05.915Z,20.05
2017-07-10T05:17:05.917Z,20.05
2017-07-10T05:18:06.581Z,20.02
2017-07-10T05:19:05.926Z,20.1
2017-07-10T05:20:06.527Z,20.07
2017-07-10T05:21:05.896Z,20.05
2017-07-10T05:22:05.878Z,20.02
2017-07-10T05:23:06.286Z,20.01
2017-07-10T05:24:05.942Z,20.04
2017-07-10T05:25:05.904Z,20.04
2017-07-10T05:26:05.976Z,20.05
2017-07-10T05:27:06.561Z,20.08
2017-07-10T05:28:06.199Z,20.07
2017-07-10T05:29:06.276Z,20.08
2017-07-10T05:30:06.015Z,20.1
2017-07-10T05:31:06.201Z,20.12
2017-07-10T05:32:06.217Z,20.18
2017-07-10T05:33:06.665Z,20.18
2017-07-10T05:34:06.169Z,20.19
2017-07-10T05:35:05.896Z,20.01
2017-07-10T05:36:05.994Z,20.02
2017-07-10T05:37:06.201Z,20.04
2017-07-10T05:38:05.890Z,19.89
2017-07-10T05:39:05.877Z,19.6
2017-07-10T05:40:06.775Z,19.4
2017-07-10T05:41:05.946Z,19.2
2017-07-10T05:42:06.254Z,19.02
2017-07-10T05:43:05.905Z,18.93
2017-07-10T05:44:05.890Z,18.78
2017-07-10T05:45:05.894Z,18.65
2017-07-10T05:46:06.229Z,18.61
2017-07-10T05:47:05.965Z,18.68
2017-07-10T05:48:06.219Z,18.49
2017-07-10T05:49:06.219Z,18.57
2017-07-10T05:50:06.171Z,18.47
2017-07-10T05:51:06.205Z,18.47
2017-07-10T05:52:06.250Z,18.34
2017-07-10T05:53:06.241Z,18.32
2017-07-10T05:54:05.818Z,18.29
2017-07-10T05:55:06.225Z,18.19
2017-07-10T05:56:06.327Z,18.19
2017-07-10T05:57:05.903Z,18.19
2017-07-10T05:58:05.886Z,18.05
2017-07-10T05:59:05.944Z,18.05
2017-07-10T06:00:05.858Z,17.95
2017-07-10T06:01:06.167Z,17.92
2017-07-10T06:02:05.844Z,17.84
2017-07-10T06:03:06.129Z,17.88
2017-07-10T06:04:06.516Z,17.8
2017-07-10T06:05:05.971Z,17.79
2017-07-10T06:06:06.230Z,17.76
2017-07-10T06:07:05.864Z,17.73
2017-07-10T06:08:05.874Z,17.69
2017-07-10T06:09:05.815Z,17.55
2017-07-10T06:10:06.361Z,17.68
2017-07-10T06:11:05.834Z,17.55
2017-07-10T06:12:06.483Z,17.55
2017-07-10T06:13:05.930Z,17.55
2017-07-10T06:14:05.957Z,17.62
2017-07-10T06:15:06.056Z,17.71
2017-07-10T06:16:05.821Z,17.58
2017-07-10T06:17:06.228Z,17.66
2017-07-10T06:18:06.131Z,17.65
2017-07-10T06:19:05.793Z,17.71
2017-07-10T06:20:06.492Z,17.69
2017-07-10T06:21:06.156Z,17.66
2017-07-10T06:22:06.130Z,17.76
2017-07-10T06:23:06.209Z,17.6
2017-07-10T06:24:06.066Z,17.58
2017-07-10T06:25:06.462Z,17.55
2017-07-10T06:26:06.124Z,17.52
2017-07-10T06:27:05.732Z,17.57
2017-07-10T06:28:06.133Z,17.65
2017-07-10T06:29:05.759Z,17.71
2017-07-10T06:30:06.196Z,17.66
2017-07-10T06:31:06.165Z,17.73
2017-07-10T06:32:06.077Z,17.63
2017-07-10T06:33:06.451Z,17.74
2017-07-10T06:34:05.849Z,17.83
2017-07-10T06:35:06.109Z,17.84
2017-07-10T06:36:05.826Z,17.79
2017-07-10T06:37:05.765Z,17.8
2017-07-10T06:38:06.181Z,17.88
2017-07-10T06:39:05.801Z,17.92
2017-07-10T06:40:05.786Z,17.87
2017-07-10T06:41:06.132Z,17.94
2017-07-10T06:42:06.121Z,17.98
2017-07-10T06:43:06.378Z,18.01
2017-07-10T06:44:06.093Z,18.03
2017-07-10T06:45:06.069Z,18.06
2017-07-10T06:46:06.063Z,18.1
2017-07-10T06:47:06.360Z,18.16
2017-07-10T06:48:05.849Z,18.19
2017-07-10T06:49:06.430Z,18.16
2017-07-10T06:50:06.180Z,18.34
2017-07-10T06:51:06.030Z,18.35
2017-07-10T06:52:06.164Z,18.24
2017-07-10T06:53:05.821Z,18.36
2017-07-10T06:54:05.692Z,18.39
2017-07-10T06:55:05.770Z,18.5
2017-07-10T06:56:05.701Z,18.54
2017-07-10T06:57:05.759Z,18.56
2017-07-10T06:58:06.064Z,18.66
2017-07-10T06:59:05.676Z,18.69
2017-07-10T07:00:06.000Z,18.69
2017-07-10T07:01:06.099Z,18.74
2017-07-10T07:02:06.058Z,18.81
2017-07-10T07:03:05.745Z,18.74
2017-07-10T07:04:06.031Z,18.78
2017-07-10T07:05:05.697Z,18.96
2017-07-10T07:06:05.663Z,18.94
2017-07-10T07:07:06.008Z,19.05
2017-07-10T07:08:05.880Z,19
2017-07-10T07:09:05.728Z,19.25
2017-07-10T07:10:05.752Z,19.24
2017-07-10T07:11:05.709Z,19.31
2017-07-10T07:12:06.053Z,19.4
2017-07-10T07:13:06.046Z,19.46
2017-07-10T07:14:05.655Z,19.6
2017-07-10T07:15:06.055Z,19.5
2017-07-10T07:16:06.053Z,19.71
2017-07-10T07:17:06.102Z,19.7
2017-07-10T07:18:06.061Z,19.82
2017-07-10T07:19:06.044Z,19.9
2017-07-10T07:20:05.688Z,20
2017-07-10T07:21:06.158Z,20.04
2017-07-10T07:22:05.647Z,20.07
2017-07-10T07:23:05.710Z,20.19
2017-07-10T07:24:05.754Z,20.38
2017-07-10T07:25:05.734Z,20.44
2017-07-10T07:26:05.667Z,20.6
2017-07-10T07:27:06.046Z,20.54
2017-07-10T07:28:05.994Z,20.56
2017-07-10T07:29:06.033Z,20.74
2017-07-10T07:30:05.738Z,20.82
2017-07-10T07:31:05.681Z,20.88
2017-07-10T07:32:05.684Z,21
2017-07-10T07:33:05.721Z,21.03
2017-07-10T07:34:05.744Z,21.16
2017-07-10T07:35:05.997Z,21.27
2017-07-10T07:36:05.675Z,21.3
2017-07-10T07:37:05.602Z,21.34
2017-07-10T07:38:06.061Z,21.4
2017-07-10T07:39:05.697Z,21.51
2017-07-10T07:40:05.764Z,21.83
2017-07-10T07:41:06.046Z,22
2017-07-10T07:42:06.348Z,22.29
2017-07-10T07:43:05.779Z,22.46
2017-07-10T07:44:06.061Z,22.7
2017-07-10T07:45:05.672Z,22.88
2017-07-10T07:46:06.056Z,23.01
2017-07-10T07:47:05.646Z,23.28
2017-07-10T07:48:05.649Z,23.57
2017-07-10T07:49:06.359Z,23.9
2017-07-10T07:50:06.340Z,24.45
2017-07-10T07:51:06.353Z,24.97
2017-07-10T07:52:06.394Z,25.49
2017-07-10T07:53:05.990Z,25.88
2017-07-10T07:54:05.999Z,26.24
2017-07-10T07:55:06.005Z,26.63
2017-07-10T07:56:06.113Z,26.89
2017-07-10T07:57:06.353Z,27.27
2017-07-10T07:58:06.409Z,27.51
2017-07-10T07:59:06.062Z,27.76
2017-07-10T08:00:05.674Z,28.17
2017-07-10T08:01:05.700Z,28.46
2017-07-10T08:02:05.664Z,28.79
2017-07-10T08:03:06.390Z,29.02
2017-07-10T08:04:06.061Z,29.3
2017-07-10T08:05:05.701Z,29.66
2017-07-10T08:06:05.726Z,29.88
2017-07-10T08:07:05.736Z,30.16
2017-07-10T08:08:06.042Z,30.16
2017-07-10T08:09:06.176Z,30.34
2017-07-10T08:10:05.826Z,30.22
2017-07-10T08:11:05.793Z,30
2017-07-10T08:12:06.118Z,29.98
2017-07-10T08:13:06.063Z,29.94
2017-07-10T08:14:06.213Z,30.09
2017-07-10T08:15:05.800Z,30.18
2017-07-10T08:16:05.812Z,30.35
2017-07-10T08:17:05.783Z,30.45
2017-07-10T08:18:06.183Z,30.39
2017-07-10T08:19:05.752Z,30.49
2017-07-10T08:20:05.744Z,30.34
2017-07-10T08:21:05.822Z,30.21
2017-07-10T08:22:06.123Z,30.06
2017-07-10T08:23:06.439Z,29.85
2017-07-10T08:24:06.128Z,29.65
2017-07-10T08:25:05.890Z,29.33
2017-07-10T08:26:05.811Z,28.88
2017-07-10T08:27:06.464Z,28.6
2017-07-10T08:28:06.171Z,28.2
2017-07-10T08:29:06.191Z,28.05
2017-07-10T08:30:06.237Z,27.81
2017-07-10T08:31:05.847Z,27.65
2017-07-10T08:32:06.173Z,27.38
2017-07-10T08:33:05.932Z,27.04
2017-07-10T08:34:06.181Z,26.75
2017-07-10T08:35:05.996Z,26.68
2017-07-10T08:36:05.885Z,26.52
2017-07-10T08:37:06.229Z,26.37
2017-07-10T08:38:05.843Z,26.27
2017-07-10T08:39:06.391Z,26.19
2017-07-10T08:40:05.867Z,26.26
2017-07-10T08:41:06.283Z,26.24
2017-07-10T08:42:06.232Z,26.26
2017-07-10T08:43:05.948Z,26.3
2017-07-10T08:44:05.860Z,26.37
2017-07-10T08:45:06.426Z,26.38
2017-07-10T08:46:06.379Z,26.34
2017-07-10T08:47:06.268Z,26.37
2017-07-10T08:48:06.267Z,26.19
2017-07-10T08:49:06.695Z,25.99
2017-07-10T08:50:06.320Z,25.91
2017-07-10T08:51:06.319Z,25.97
2017-07-10T08:52:05.889Z,25.96
2017-07-10T08:53:06.030Z,25.94
2017-07-10T08:54:06.086Z,25.94
2017-07-10T08:55:05.994Z,25.79
2017-07-10T08:56:06.648Z,25.71
2017-07-10T08:57:06.393Z,25.75
2017-07-10T08:58:06.285Z,25.7
2017-07-10T08:59:06.025Z,25.74
2017-07-10T09:00:06.022Z,25.82
2017-07-10T09:01:06.363Z,25.89
2017-07-10T09:02:06.633Z,25.93
2017-07-10T09:03:06.051Z,26.07
2017-07-10T09:04:06.372Z,25.97
2017-07-10T09:05:06.390Z,26.09
2017-07-10T09:06:06.353Z,26.19
2017-07-10T09:07:06.287Z,26.37
2017-07-10T09:08:05.998Z,26.47
2017-07-10T09:09:06.364Z,26.45
2017-07-10T09:10:06.665Z,26.47
2017-07-10T09:11:06.024Z,26.76
2017-07-10T09:12:06.368Z,26.82
2017-07-10T09:13:06.390Z,26.93
2017-07-10T09:14:06.659Z,27
2017-07-10T09:15:06.087Z,26.78
2017-07-10T09:16:06.394Z,26.54
2017-07-10T09:17:06.034Z,26.47
2017-07-10T09:18:06.370Z,26.35
2017-07-10T09:19:06.039Z,26.27
2017-07-10T09:20:06.356Z,26.17
2017-07-10T09:21:06.447Z,26.3
2017-07-10T09:22:06.072Z,26.09
2017-07-10T09:23:06.126Z,25.89
2017-07-10T09:24:06.044Z,25.67
2017-07-10T09:25:06.409Z,25.62
2017-07-10T09:26:06.615Z,25.49
2017-07-10T09:27:06.397Z,25.47
2017-07-10T09:28:06.758Z,25.41
2017-07-10T09:29:06.441Z,25.44
2017-07-10T09:30:06.123Z,25.45
2017-07-10T09:31:06.114Z,25.51
2017-07-10T09:32:06.120Z,25.49
2017-07-10T09:33:06.441Z,25.52
2017-07-10T09:34:06.435Z,25.59
2017-07-10T09:35:06.434Z,25.49
2017-07-10T09:36:06.141Z,25.51
2017-07-10T09:37:06.434Z,25.56
2017-07-10T09:38:06.425Z,25.56
2017-07-10T09:39:06.185Z,25.54
2017-07-10T09:40:06.876Z,25.47
2017-07-10T09:41:06.476Z,25.59
2017-07-10T09:42:06.535Z,25.56
2017-07-10T09:43:06.141Z,25.51
2017-07-10T09:44:06.114Z,25.71
2017-07-10T09:45:06.529Z,25.66
2017-07-10T09:46:06.813Z,25.62
2017-07-10T09:47:06.832Z,25.52
2017-07-10T09:48:06.151Z,25.47
2017-07-10T09:49:06.180Z,25.59
2017-07-10T09:50:06.492Z,25.74
2017-07-10T09:51:06.500Z,25.91
2017-07-10T09:52:06.452Z,26.06
2017-07-10T09:53:06.807Z,26.06
2017-07-10T09:54:06.184Z,26.22
2017-07-10T09:55:06.801Z,26.27
2017-07-10T09:56:06.204Z,26.32
2017-07-10T09:57:06.147Z,26.32
2017-07-10T09:58:06.547Z,26.31
2017-07-10T09:59:06.267Z,26.31
2017-07-10T10:00:06.588Z,26.16
2017-07-10T10:01:06.569Z,25.96
2017-07-10T10:02:06.558Z,25.74
2017-07-10T10:03:06.517Z,25.64
2017-07-10T10:04:06.571Z,25.49
2017-07-10T10:05:06.210Z,25.37
2017-07-10T10:06:06.239Z,25.37
2017-07-10T10:07:06.576Z,25.34
2017-07-10T10:08:06.540Z,25.34
2017-07-10T10:09:06.597Z,25.23
2017-07-10T10:10:06.547Z,25.34
2017-07-10T10:11:06.581Z,25.29
2017-07-10T10:12:06.267Z,25.23
2017-07-10T10:13:06.305Z,25.22
2017-07-10T10:14:06.557Z,25.14
2017-07-10T10:15:06.605Z,25.11
2017-07-10T10:16:06.271Z,25.11
2017-07-10T10:17:06.298Z,25.07
2017-07-10T10:18:06.376Z,25
2017-07-10T10:19:06.583Z,25
2017-07-10T10:20:07.017Z,25.11
2017-07-10T10:21:06.572Z,25.17
2017-07-10T10:22:06.735Z,25.3
2017-07-10T10:23:06.663Z,25.24
2017-07-10T10:24:06.348Z,25.33
2017-07-10T10:25:06.661Z,25.27
2017-07-10T10:26:06.582Z,25.32
2017-07-10T10:27:06.341Z,25.27
2017-07-10T10:28:06.984Z,25.26
2017-07-10T10:29:06.640Z,25.26
2017-07-10T10:30:06.287Z,25.23
2017-07-10T10:31:06.343Z,25.11
2017-07-10T10:32:06.355Z,25.2
2017-07-10T10:33:06.313Z,25.27
2017-07-10T10:34:06.467Z,25.29
2017-07-10T10:35:06.745Z,25.3
2017-07-10T10:36:06.679Z,25.42
2017-07-10T10:37:06.447Z,25.51
2017-07-10T10:38:06.628Z,25.75
2017-07-10T10:39:06.413Z,25.89
2017-07-10T10:40:06.735Z,25.97
2017-07-10T10:41:06.415Z,25.82
2017-07-10T10:42:06.356Z,25.78
2017-07-10T10:43:06.754Z,25.64
2017-07-10T10:44:06.690Z,25.49
2017-07-10T10:45:06.431Z,25.48
2017-07-10T10:46:06.676Z,25.6
2017-07-10T10:47:06.814Z,25.49
2017-07-10T10:48:06.434Z,25.49
2017-07-10T10:49:06.380Z,25.49
2017-07-10T10:50:06.729Z,25.54
2017-07-10T10:51:07.085Z,25.64
2017-07-10T10:52:07.042Z,25.78
2017-07-10T10:53:06.865Z,25.86
2017-07-10T10:54:06.441Z,25.81
2017-07-10T10:55:06.769Z,25.76
2017-07-10T10:56:06.413Z,25.64
2017-07-10T10:57:06.822Z,25.52
2017-07-10T10:58:07.111Z,25.45
2017-07-10T10:59:07.170Z,25.44
2017-07-10T11:00:06.754Z,25.27
2017-07-10T11:01:06.785Z,25.3
2017-07-10T11:02:06.449Z,25.26
2017-07-10T11:03:06.472Z,25.33
2017-07-10T11:04:06.860Z,25.49
2017-07-10T11:05:06.847Z,25.51
2017-07-10T11:06:06.415Z,25.6
2017-07-10T11:07:06.890Z,25.71
2017-07-10T11:08:06.770Z,25.69
2017-07-10T11:09:06.427Z,25.69
2017-07-10T11:10:06.457Z,25.86
2017-07-10T11:11:06.584Z,25.7
2017-07-10T11:12:06.452Z,25.56
2017-07-10T11:13:06.849Z,25.54
2017-07-10T11:14:06.897Z,25.56
2017-07-10T11:15:06.485Z,25.59
2017-07-10T11:16:06.479Z,25.76
2017-07-10T11:17:06.840Z,25.81
2017-07-10T11:18:06.839Z,26.06
2017-07-10T11:19:06.848Z,26.17
2017-07-10T11:20:06.845Z,26.27
2017-07-10T11:21:06.544Z,26.31
2017-07-10T11:22:06.957Z,26.11
2017-07-10T11:23:06.903Z,26.04
2017-07-10T11:24:06.598Z,26.04
2017-07-10T11:25:06.533Z,25.89
2017-07-10T11:26:06.942Z,25.91
2017-07-10T11:27:06.482Z,25.94
2017-07-10T11:28:06.996Z,25.84
2017-07-10T11:29:06.519Z,25.79
2017-07-10T11:30:06.925Z,25.71
2017-07-10T11:31:06.486Z,25.66
2017-07-10T11:32:06.844Z,25.69
2017-07-10T11:33:06.896Z,25.69
2017-07-10T11:34:06.882Z,25.6
2017-07-10T11:35:06.563Z,25.57
2017-07-10T11:36:06.883Z,25.52
2017-07-10T11:37:06.589Z,25.47
2017-07-10T11:38:06.534Z,25.54
2017-07-10T11:39:07.148Z,25.67
2017-07-10T11:40:06.921Z,25.6
2017-07-10T11:41:06.938Z,25.6
2017-07-10T11:42:06.615Z,25.6
2017-07-10T11:43:07.273Z,25.52
2017-07-10T11:44:06.602Z,25.54
2017-07-10T11:45:07.246Z,25.51
2017-07-10T11:46:07.351Z,25.47
2017-07-10T11:47:06.778Z,25.51
2017-07-10T11:48:06.629Z,25.6
2017-07-10T11:49:06.657Z,25.44
2017-07-10T11:50:06.611Z,25.51
2017-07-10T11:51:06.933Z,25.49
2017-07-10T11:52:06.971Z,25.51
2017-07-10T11:53:06.998Z,25.6
2017-07-10T11:54:06.983Z,25.56
2017-07-10T11:55:06.918Z,25.62
2017-07-10T11:56:06.660Z,25.6
2017-07-10T11:57:07.006Z,25.62
2017-07-10T11:58:06.980Z,25.64
2017-07-10T11:59:07.012Z,25.76
2017-07-10T12:00:07.065Z,25.78
2017-07-10T12:01:06.718Z,25.89
2017-07-10T12:02:07.377Z,25.84
2017-07-10T12:03:06.996Z,25.96
2017-07-10T12:04:06.934Z,25.99
2017-07-10T12:05:07.073Z,26.07
2017-07-10T12:06:06.689Z,26.24
2017-07-10T12:07:06.658Z,26.26
2017-07-10T12:08:07.032Z,26.27
2017-07-10T12:09:07.126Z,26.41
2017-07-10T12:10:07.375Z,26.3
2017-07-10T12:11:06.729Z,26.27
2017-07-10T12:12:06.992Z,26.22
2017-07-10T12:13:06.681Z,26.3
2017-07-10T12:14:06.705Z,26.37
2017-07-10T12:15:06.758Z,26.31
2017-07-10T12:16:06.696Z,26.31
2017-07-10T12:17:06.812Z,26.27
2017-07-10T12:18:07.058Z,26.2
2017-07-10T12:19:07.398Z,26.2
2017-07-10T12:20:06.739Z,26.15
2017-07-10T12:21:07.017Z,26.15
2017-07-10T12:22:07.090Z,26.2
2017-07-10T12:23:07.059Z,26.3
2017-07-10T12:24:06.741Z,26.31
2017-07-10T12:25:07.075Z,26.2
2017-07-10T12:26:06.696Z,26.04
2017-07-10T12:27:06.775Z,26.11
2017-07-10T12:28:07.032Z,26.31
2017-07-10T12:29:06.761Z,26.35
2017-07-10T12:30:06.760Z,26.39
2017-07-10T12:31:06.793Z,26.35
2017-07-10T12:32:07.095Z,26.32
2017-07-10T12:33:06.819Z,26.42
2017-07-10T12:34:07.074Z,26.37
2017-07-10T12:35:06.828Z,26.35
2017-07-10T12:36:07.119Z,26.44
2017-07-10T12:37:06.740Z,26.44
2017-07-10T12:38:07.106Z,26.5
2017-07-10T12:39:06.776Z,26.53
2017-07-10T12:40:06.896Z,26.78
2017-07-10T12:41:06.826Z,26.93
2017-07-10T12:42:07.100Z,26.99
2017-07-10T12:43:07.110Z,26.96
2017-07-10T12:44:07.134Z,27
2017-07-10T12:45:06.996Z,27.18
2017-07-10T12:46:06.845Z,27.26
2017-07-10T12:47:06.807Z,27.26
2017-07-10T12:48:06.804Z,27.12
2017-07-10T12:49:06.807Z,27.04
2017-07-10T12:50:07.219Z,26.96
2017-07-10T12:51:07.215Z,26.81
2017-07-10T12:52:06.924Z,26.99
2017-07-10T12:53:06.894Z,27.15
2017-07-10T12:54:07.246Z,27.21
2017-07-10T12:55:06.992Z,27.31
2017-07-10T12:56:06.864Z,27.31